This is the latest recevied weather packets stored in our database for station/object HS1AXC-1. If no packets are shown the sender has not sent any weather packets the latest 10 day(s).
| Time | Temp. | Humidity | Pressure | Rain* | Wind** | Luminosity | Snow |
|---|---|---|---|---|---|---|---|
| 1777803747 | 36.67° C | 59% | 1005 hPa | - | - | 0 W/m² | - |
| 1777803125 | 37.22° C | 58% | 1005 hPa | - | - | 0 W/m² | - |
| 1777802503 | 36.11° C | 60% | 1005 hPa | - | - | 0 W/m² | - |
| 1777801881 | 37.22° C | 59% | 1005 hPa | - | - | 0 W/m² | - |
| 1777801258 | 36.67° C | 61% | 1005 hPa | - | - | 1 W/m² | - |
| 1777800637 | 36.67° C | 62% | 1005 hPa | - | - | 1 W/m² | - |
| 1777800014 | 36.11° C | 67% | 1005 hPa | - | - | 1 W/m² | - |
| 1777799392 | 35.56° C | 65% | 1005 hPa | - | - | 1 W/m² | - |
| 1777798770 | 35.56° C | 67% | 1005 hPa | - | - | 1 W/m² | - |
| 1777798148 | 35.56° C | 72% | 1006 hPa | - | - | 1 W/m² | - |
| 1777797526 | 35° C | 72% | 1006 hPa | - | - | 1 W/m² | - |
| 1777796904 | 35° C | 76% | 1006 hPa | - | - | 1 W/m² | - |
| 1777796282 | 34.44° C | 77% | 1006 hPa | - | - | 1 W/m² | - |
| 1777795660 | 33.89° C | 78% | 1006 hPa | - | - | 1 W/m² | - |
| 1777795038 | 34.44° C | 80% | 1006 hPa | - | - | 0 W/m² | - |
| 1777794416 | 34.44° C | 82% | 1006 hPa | - | - | 0 W/m² | - |
| 1777793794 | 33.89° C | 84% | 1007 hPa | - | - | 0 W/m² | - |
| 1777793172 | 33.89° C | 85% | 1007 hPa | - | - | 0 W/m² | - |
| 1777792550 | 33.33° C | 83% | 1007 hPa | - | - | 0 W/m² | - |
| 1777791927 | 33.33° C | 80% | 1007 hPa | - | - | 0 W/m² | - |
| 1777791305 | 33.33° C | 79% | 1007 hPa | - | - | 0 W/m² | - |
| 1777790683 | 33.89° C | 81% | 1007 hPa | - | - | 0 W/m² | - |
| 1777790061 | 33.33° C | 88% | 1007 hPa | - | - | 0 W/m² | - |
| 1777789439 | 33.33° C | 88% | 1008 hPa | - | - | 0 W/m² | - |
| 1777788817 | 37.22° C | 56% | 1008 hPa | - | - | 0 W/m² | - |
* Rain since midnight (hover to see other rain measurements)
** Current wind speed in m/s (hover to see current wind gust speed)